sensor_id;sensor_type;location;lat;lon;timestamp;P1;durP1;ratioP1;P2;durP2;ratioP2
19301;SDS011;9785;59.362;12.152;2022-08-01T00:01:23;4.07;;;3.67;;
19301;SDS011;9785;59.362;12.152;2022-08-01T00:03:51;4.27;;;3.13;;
19301;SDS011;9785;59.362;12.152;2022-08-01T00:06:21;4.23;;;3.50;;
19301;SDS011;9785;59.362;12.152;2022-08-01T00:08:49;6.33;;;3.37;;
19301;SDS011;9785;59.362;12.152;2022-08-01T00:11:18;4.37;;;3.40;;
19301;SDS011;9785;59.362;12.152;2022-08-01T00:13:46;3.90;;;3.50;;
19301;SDS011;9785;59.362;12.152;2022-08-01T00:16:15;6.50;;;3.67;;
19301;SDS011;9785;59.362;12.152;2022-08-01T00:18:43;7.77;;;3.43;;
19301;SDS011;9785;59.362;12.152;2022-08-01T00:21:12;9.17;;;3.30;;
19301;SDS011;9785;59.362;12.152;2022-08-01T00:23:42;5.13;;;3.13;;
19301;SDS011;9785;59.362;12.152;2022-08-01T00:26:11;3.93;;;3.13;;
19301;SDS011;9785;59.362;12.152;2022-08-01T00:28:40;4.37;;;3.60;;
19301;SDS011;9785;59.362;12.152;2022-08-01T00:31:09;5.00;;;3.40;;
19301;SDS011;9785;59.362;12.152;2022-08-01T00:33:37;4.53;;;3.27;;
19301;SDS011;9785;59.362;12.152;2022-08-01T00:36:06;3.87;;;3.57;;
19301;SDS011;9785;59.362;12.152;2022-08-01T00:38:34;6.47;;;3.20;;
19301;SDS011;9785;59.362;12.152;2022-08-01T00:41:04;4.77;;;3.60;;
19301;SDS011;9785;59.362;12.152;2022-08-01T00:43:32;5.20;;;3.47;;
19301;SDS011;9785;59.362;12.152;2022-08-01T00:46:00;6.93;;;3.70;;
19301;SDS011;9785;59.362;12.152;2022-08-01T00:48:29;3.80;;;3.10;;
19301;SDS011;9785;59.362;12.152;2022-08-01T00:50:57;4.53;;;3.60;;
19301;SDS011;9785;59.362;12.152;2022-08-01T00:53:26;7.13;;;3.60;;
19301;SDS011;9785;59.362;12.152;2022-08-01T00:56:16;5.33;;;3.50;;
19301;SDS011;9785;59.362;12.152;2022-08-01T00:58:45;3.60;;;3.30;;
19301;SDS011;9785;59.362;12.152;2022-08-01T01:01:15;3.37;;;3.00;;
19301;SDS011;9785;59.362;12.152;2022-08-01T01:03:44;4.40;;;3.33;;
19301;SDS011;9785;59.362;12.152;2022-08-01T01:06:36;4.10;;;3.70;;
19301;SDS011;9785;59.362;12.152;2022-08-01T01:09:18;4.30;;;3.60;;
19301;SDS011;9785;59.362;12.152;2022-08-01T01:11:54;4.10;;;3.30;;
19301;SDS011;9785;59.362;12.152;2022-08-01T01:14:27;5.43;;;3.10;;
19301;SDS011;9785;59.362;12.152;2022-08-01T01:16:58;5.37;;;3.73;;
19301;SDS011;9785;59.362;12.152;2022-08-01T01:19:28;6.00;;;3.70;;
19301;SDS011;9785;59.362;12.152;2022-08-01T01:22:08;5.73;;;3.43;;
19301;SDS011;9785;59.362;12.152;2022-08-01T01:24:45;3.73;;;3.30;;
19301;SDS011;9785;59.362;12.152;2022-08-01T01:27:17;3.80;;;3.33;;
19301;SDS011;9785;59.362;12.152;2022-08-01T01:29:50;4.80;;;3.70;;
19301;SDS011;9785;59.362;12.152;2022-08-01T01:32:28;4.50;;;3.63;;
19301;SDS011;9785;59.362;12.152;2022-08-01T01:35:00;6.20;;;3.67;;
19301;SDS011;9785;59.362;12.152;2022-08-01T01:37:30;4.27;;;3.43;;
19301;SDS011;9785;59.362;12.152;2022-08-01T01:40:00;6.30;;;3.53;;
19301;SDS011;9785;59.362;12.152;2022-08-01T01:42:30;4.20;;;3.80;;
19301;SDS011;9785;59.362;12.152;2022-08-01T01:45:00;4.10;;;3.53;;
19301;SDS011;9785;59.362;12.152;2022-08-01T01:47:29;5.27;;;3.80;;
19301;SDS011;9785;59.362;12.152;2022-08-01T01:49:59;4.30;;;3.70;;
19301;SDS011;9785;59.362;12.152;2022-08-01T01:52:28;8.67;;;3.67;;
19301;SDS011;9785;59.362;12.152;2022-08-01T01:54:57;4.77;;;3.80;;
19301;SDS011;9785;59.362;12.152;2022-08-01T01:57:27;4.00;;;3.33;;
19301;SDS011;9785;59.362;12.152;2022-08-01T01:59:56;7.47;;;4.23;;
19301;SDS011;9785;59.362;12.152;2022-08-01T02:02:26;5.17;;;3.60;;
19301;SDS011;9785;59.362;12.152;2022-08-01T02:04:56;4.80;;;3.97;;
19301;SDS011;9785;59.362;12.152;2022-08-01T02:07:24;3.90;;;3.60;;
19301;SDS011;9785;59.362;12.152;2022-08-01T02:09:54;4.27;;;3.90;;
19301;SDS011;9785;59.362;12.152;2022-08-01T02:12:23;4.37;;;4.07;;
19301;SDS011;9785;59.362;12.152;2022-08-01T02:14:52;4.43;;;3.77;;
19301;SDS011;9785;59.362;12.152;2022-08-01T02:17:21;5.60;;;3.80;;
19301;SDS011;9785;59.362;12.152;2022-08-01T02:19:53;4.40;;;4.00;;
19301;SDS011;9785;59.362;12.152;2022-08-01T02:22:24;4.20;;;3.80;;
19301;SDS011;9785;59.362;12.152;2022-08-01T02:24:54;5.40;;;3.80;;
19301;SDS011;9785;59.362;12.152;2022-08-01T02:27:24;3.77;;;3.47;;
19301;SDS011;9785;59.362;12.152;2022-08-01T02:29:54;4.17;;;3.87;;
19301;SDS011;9785;59.362;12.152;2022-08-01T02:32:29;3.70;;;3.50;;
19301;SDS011;9785;59.362;12.152;2022-08-01T02:35:00;4.17;;;3.80;;
19301;SDS011;9785;59.362;12.152;2022-08-01T02:37:30;7.53;;;3.67;;
19301;SDS011;9785;59.362;12.152;2022-08-01T02:39:59;4.40;;;3.87;;
19301;SDS011;9785;59.362;12.152;2022-08-01T02:42:28;3.57;;;3.27;;
19301;SDS011;9785;59.362;12.152;2022-08-01T02:44:57;4.53;;;3.80;;
19301;SDS011;9785;59.362;12.152;2022-08-01T02:47:26;3.70;;;3.40;;
19301;SDS011;9785;59.362;12.152;2022-08-01T02:49:55;3.70;;;3.50;;
19301;SDS011;9785;59.362;12.152;2022-08-01T02:52:26;3.70;;;3.50;;
19301;SDS011;9785;59.362;12.152;2022-08-01T02:54:55;3.43;;;3.23;;
19301;SDS011;9785;59.362;12.152;2022-08-01T02:57:24;3.37;;;3.10;;
19301;SDS011;9785;59.362;12.152;2022-08-01T03:00:13;4.10;;;3.60;;
19301;SDS011;9785;59.362;12.152;2022-08-01T03:02:41;4.33;;;3.67;;
19301;SDS011;9785;59.362;12.152;2022-08-01T03:05:12;3.13;;;2.87;;
19301;SDS011;9785;59.362;12.152;2022-08-01T03:07:42;3.60;;;3.40;;
19301;SDS011;9785;59.362;12.152;2022-08-01T03:10:13;6.27;;;3.67;;
19301;SDS011;9785;59.362;12.152;2022-08-01T03:12:42;3.70;;;3.50;;
19301;SDS011;9785;59.362;12.152;2022-08-01T03:15:13;3.70;;;3.50;;
19301;SDS011;9785;59.362;12.152;2022-08-01T03:17:42;3.70;;;3.40;;
19301;SDS011;9785;59.362;12.152;2022-08-01T03:20:13;4.20;;;3.90;;
19301;SDS011;9785;59.362;12.152;2022-08-01T03:22:43;4.00;;;3.80;;
19301;SDS011;9785;59.362;12.152;2022-08-01T03:25:12;3.90;;;3.60;;
19301;SDS011;9785;59.362;12.152;2022-08-01T03:27:42;4.40;;;3.70;;
19301;SDS011;9785;59.362;12.152;2022-08-01T03:30:11;3.83;;;3.53;;
19301;SDS011;9785;59.362;12.152;2022-08-01T03:32:40;3.83;;;3.57;;
19301;SDS011;9785;59.362;12.152;2022-08-01T03:35:08;5.30;;;3.50;;
19301;SDS011;9785;59.362;12.152;2022-08-01T03:37:40;4.77;;;3.43;;
19301;SDS011;9785;59.362;12.152;2022-08-01T03:40:33;3.87;;;3.57;;
19301;SDS011;9785;59.362;12.152;2022-08-01T03:43:04;3.80;;;3.60;;
19301;SDS011;9785;59.362;12.152;2022-08-01T03:45:35;3.37;;;3.17;;
19301;SDS011;9785;59.362;12.152;2022-08-01T03:48:05;2.87;;;2.77;;
19301;SDS011;9785;59.362;12.152;2022-08-01T03:50:34;2.80;;;2.70;;
19301;SDS011;9785;59.362;12.152;2022-08-01T03:53:03;3.07;;;2.77;;
19301;SDS011;9785;59.362;12.152;2022-08-01T03:55:35;2.67;;;2.57;;
19301;SDS011;9785;59.362;12.152;2022-08-01T03:58:05;2.67;;;2.57;;
19301;SDS011;9785;59.362;12.152;2022-08-01T04:00:35;2.70;;;2.60;;
19301;SDS011;9785;59.362;12.152;2022-08-01T04:03:06;2.67;;;2.57;;
19301;SDS011;9785;59.362;12.152;2022-08-01T04:05:35;2.63;;;2.43;;
19301;SDS011;9785;59.362;12.152;2022-08-01T04:08:04;2.40;;;2.20;;
19301;SDS011;9785;59.362;12.152;2022-08-01T04:10:32;2.50;;;2.40;;
19301;SDS011;9785;59.362;12.152;2022-08-01T04:13:02;2.40;;;2.30;;
19301;SDS011;9785;59.362;12.152;2022-08-01T04:15:30;2.30;;;2.10;;
19301;SDS011;9785;59.362;12.152;2022-08-01T04:17:59;2.30;;;2.20;;
19301;SDS011;9785;59.362;12.152;2022-08-01T04:20:27;2.07;;;2.07;;
19301;SDS011;9785;59.362;12.152;2022-08-01T04:22:56;2.60;;;2.50;;
19301;SDS011;9785;59.362;12.152;2022-08-01T04:25:25;2.40;;;2.30;;
19301;SDS011;9785;59.362;12.152;2022-08-01T04:27:54;2.30;;;2.20;;
19301;SDS011;9785;59.362;12.152;2022-08-01T04:30:25;2.07;;;2.00;;
19301;SDS011;9785;59.362;12.152;2022-08-01T04:32:55;2.03;;;2.03;;
19301;SDS011;9785;59.362;12.152;2022-08-01T04:35:25;2.47;;;2.37;;
19301;SDS011;9785;59.362;12.152;2022-08-01T04:38:15;1.97;;;1.87;;
19301;SDS011;9785;59.362;12.152;2022-08-01T04:40:44;2.30;;;2.20;;
19301;SDS011;9785;59.362;12.152;2022-08-01T04:43:13;2.30;;;2.10;;
19301;SDS011;9785;59.362;12.152;2022-08-01T04:45:43;2.40;;;2.30;;
19301;SDS011;9785;59.362;12.152;2022-08-01T04:48:13;2.10;;;2.07;;
19301;SDS011;9785;59.362;12.152;2022-08-01T04:50:41;2.10;;;2.00;;
19301;SDS011;9785;59.362;12.152;2022-08-01T04:53:12;2.30;;;2.10;;
19301;SDS011;9785;59.362;12.152;2022-08-01T04:55:40;2.53;;;2.40;;
19301;SDS011;9785;59.362;12.152;2022-08-01T04:58:09;2.10;;;2.00;;
19301;SDS011;9785;59.362;12.152;2022-08-01T05:00:44;2.27;;;2.17;;
19301;SDS011;9785;59.362;12.152;2022-08-01T05:03:13;2.47;;;2.30;;
19301;SDS011;9785;59.362;12.152;2022-08-01T05:05:41;1.87;;;1.80;;
19301;SDS011;9785;59.362;12.152;2022-08-01T05:08:10;1.90;;;1.90;;
19301;SDS011;9785;59.362;12.152;2022-08-01T05:10:38;1.90;;;1.90;;
19301;SDS011;9785;59.362;12.152;2022-08-01T05:13:07;1.90;;;1.90;;
19301;SDS011;9785;59.362;12.152;2022-08-01T05:15:35;1.60;;;1.60;;
19301;SDS011;9785;59.362;12.152;2022-08-01T05:18:05;2.10;;;2.00;;
19301;SDS011;9785;59.362;12.152;2022-08-01T05:20:34;1.90;;;1.90;;
19301;SDS011;9785;59.362;12.152;2022-08-01T05:23:04;1.97;;;1.90;;
19301;SDS011;9785;59.362;12.152;2022-08-01T05:25:38;2.10;;;1.60;;
19301;SDS011;9785;59.362;12.152;2022-08-01T05:28:23;1.50;;;1.50;;
19301;SDS011;9785;59.362;12.152;2022-08-01T05:30:51;1.40;;;1.40;;
19301;SDS011;9785;59.362;12.152;2022-08-01T05:33:22;1.10;;;1.10;;
19301;SDS011;9785;59.362;12.152;2022-08-01T05:35:51;1.30;;;1.30;;
19301;SDS011;9785;59.362;12.152;2022-08-01T05:38:19;1.20;;;1.20;;
19301;SDS011;9785;59.362;12.152;2022-08-01T05:40:47;1.20;;;1.20;;
19301;SDS011;9785;59.362;12.152;2022-08-01T05:43:16;1.30;;;1.30;;
19301;SDS011;9785;59.362;12.152;2022-08-01T05:45:44;1.40;;;1.40;;
19301;SDS011;9785;59.362;12.152;2022-08-01T05:48:13;1.67;;;1.50;;
19301;SDS011;9785;59.362;12.152;2022-08-01T05:50:43;1.80;;;1.70;;
19301;SDS011;9785;59.362;12.152;2022-08-01T05:53:12;2.00;;;1.50;;
19301;SDS011;9785;59.362;12.152;2022-08-01T05:55:40;1.83;;;1.77;;
19301;SDS011;9785;59.362;12.152;2022-08-01T05:58:09;1.60;;;1.60;;
19301;SDS011;9785;59.362;12.152;2022-08-01T06:00:37;1.53;;;1.53;;
19301;SDS011;9785;59.362;12.152;2022-08-01T06:03:06;1.80;;;1.80;;
19301;SDS011;9785;59.362;12.152;2022-08-01T06:05:34;1.70;;;1.60;;
19301;SDS011;9785;59.362;12.152;2022-08-01T06:08:04;2.23;;;2.00;;
19301;SDS011;9785;59.362;12.152;2022-08-01T06:10:33;2.00;;;1.90;;
19301;SDS011;9785;59.362;12.152;2022-08-01T06:13:01;1.63;;;1.53;;
19301;SDS011;9785;59.362;12.152;2022-08-01T06:15:30;1.80;;;1.80;;
19301;SDS011;9785;59.362;12.152;2022-08-01T06:17:58;4.83;;;2.10;;
19301;SDS011;9785;59.362;12.152;2022-08-01T06:20:27;1.80;;;1.70;;
19301;SDS011;9785;59.362;12.152;2022-08-01T06:22:55;1.93;;;1.90;;
19301;SDS011;9785;59.362;12.152;2022-08-01T06:25:29;1.97;;;1.90;;
19301;SDS011;9785;59.362;12.152;2022-08-01T06:27:57;2.23;;;2.10;;
19301;SDS011;9785;59.362;12.152;2022-08-01T06:30:26;1.33;;;1.33;;
19301;SDS011;9785;59.362;12.152;2022-08-01T06:32:54;1.80;;;1.70;;
19301;SDS011;9785;59.362;12.152;2022-08-01T06:35:25;1.70;;;1.70;;
19301;SDS011;9785;59.362;12.152;2022-08-01T06:37:54;1.93;;;1.93;;
19301;SDS011;9785;59.362;12.152;2022-08-01T06:40:23;2.00;;;1.90;;
19301;SDS011;9785;59.362;12.152;2022-08-01T06:42:53;3.23;;;1.87;;
19301;SDS011;9785;59.362;12.152;2022-08-01T06:45:22;1.90;;;1.80;;
19301;SDS011;9785;59.362;12.152;2022-08-01T06:47:52;1.93;;;1.83;;
19301;SDS011;9785;59.362;12.152;2022-08-01T06:50:20;1.80;;;1.80;;
19301;SDS011;9785;59.362;12.152;2022-08-01T06:52:49;1.70;;;1.70;;
19301;SDS011;9785;59.362;12.152;2022-08-01T06:55:17;2.40;;;2.20;;
19301;SDS011;9785;59.362;12.152;2022-08-01T06:57:46;2.17;;;1.90;;
19301;SDS011;9785;59.362;12.152;2022-08-01T07:00:16;2.00;;;2.00;;
19301;SDS011;9785;59.362;12.152;2022-08-01T07:02:48;2.27;;;1.80;;
19301;SDS011;9785;59.362;12.152;2022-08-01T07:05:17;2.00;;;1.90;;
19301;SDS011;9785;59.362;12.152;2022-08-01T07:07:45;2.93;;;1.80;;
19301;SDS011;9785;59.362;12.152;2022-08-01T07:10:13;1.70;;;1.60;;
19301;SDS011;9785;59.362;12.152;2022-08-01T07:12:42;1.27;;;1.27;;
19301;SDS011;9785;59.362;12.152;2022-08-01T07:15:11;1.83;;;1.47;;
19301;SDS011;9785;59.362;12.152;2022-08-01T07:17:41;1.50;;;1.50;;
19301;SDS011;9785;59.362;12.152;2022-08-01T07:20:10;1.47;;;1.37;;
19301;SDS011;9785;59.362;12.152;2022-08-01T07:22:42;1.70;;;1.60;;
19301;SDS011;9785;59.362;12.152;2022-08-01T07:25:13;5.90;;;2.07;;
19301;SDS011;9785;59.362;12.152;2022-08-01T07:27:42;4.00;;;1.37;;
19301;SDS011;9785;59.362;12.152;2022-08-01T07:30:12;1.60;;;1.50;;
19301;SDS011;9785;59.362;12.152;2022-08-01T07:32:42;1.47;;;1.10;;
19301;SDS011;9785;59.362;12.152;2022-08-01T07:35:10;1.27;;;1.27;;
19301;SDS011;9785;59.362;12.152;2022-08-01T07:37:38;1.37;;;1.37;;
19301;SDS011;9785;59.362;12.152;2022-08-01T07:40:14;1.03;;;1.03;;
19301;SDS011;9785;59.362;12.152;2022-08-01T07:42:43;1.20;;;1.10;;
19301;SDS011;9785;59.362;12.152;2022-08-01T07:45:12;1.43;;;1.43;;
19301;SDS011;9785;59.362;12.152;2022-08-01T07:47:42;1.73;;;1.30;;
19301;SDS011;9785;59.362;12.152;2022-08-01T07:50:11;1.00;;;1.00;;
19301;SDS011;9785;59.362;12.152;2022-08-01T07:52:40;1.30;;;1.30;;
19301;SDS011;9785;59.362;12.152;2022-08-01T07:55:08;1.30;;;1.20;;
19301;SDS011;9785;59.362;12.152;2022-08-01T07:57:42;1.17;;;1.10;;
19301;SDS011;9785;59.362;12.152;2022-08-01T08:00:11;1.10;;;1.10;;
19301;SDS011;9785;59.362;12.152;2022-08-01T08:02:40;1.20;;;1.20;;
19301;SDS011;9785;59.362;12.152;2022-08-01T08:05:10;1.03;;;1.03;;
19301;SDS011;9785;59.362;12.152;2022-08-01T08:07:39;0.90;;;0.90;;
19301;SDS011;9785;59.362;12.152;2022-08-01T08:10:08;1.27;;;1.00;;
19301;SDS011;9785;59.362;12.152;2022-08-01T08:12:36;0.80;;;0.80;;
19301;SDS011;9785;59.362;12.152;2022-08-01T08:15:05;1.47;;;0.90;;
19301;SDS011;9785;59.362;12.152;2022-08-01T08:17:34;1.10;;;1.00;;
19301;SDS011;9785;59.362;12.152;2022-08-01T08:20:03;1.20;;;0.90;;
19301;SDS011;9785;59.362;12.152;2022-08-01T08:22:35;1.17;;;1.10;;
19301;SDS011;9785;59.362;12.152;2022-08-01T08:25:04;1.00;;;0.80;;
19301;SDS011;9785;59.362;12.152;2022-08-01T08:27:33;0.73;;;0.73;;
19301;SDS011;9785;59.362;12.152;2022-08-01T08:30:03;3.20;;;0.83;;
19301;SDS011;9785;59.362;12.152;2022-08-01T08:32:34;1.07;;;0.97;;
19301;SDS011;9785;59.362;12.152;2022-08-01T08:35:02;2.03;;;1.40;;
19301;SDS011;9785;59.362;12.152;2022-08-01T08:37:32;0.80;;;0.80;;
19301;SDS011;9785;59.362;12.152;2022-08-01T08:40:10;0.80;;;0.80;;
19301;SDS011;9785;59.362;12.152;2022-08-01T08:42:39;0.87;;;0.87;;
19301;SDS011;9785;59.362;12.152;2022-08-01T08:45:09;1.53;;;0.93;;
19301;SDS011;9785;59.362;12.152;2022-08-01T08:47:37;1.23;;;1.10;;
19301;SDS011;9785;59.362;12.152;2022-08-01T08:50:06;2.57;;;0.90;;
19301;SDS011;9785;59.362;12.152;2022-08-01T08:52:35;0.77;;;0.77;;
19301;SDS011;9785;59.362;12.152;2022-08-01T08:55:06;0.87;;;0.87;;
19301;SDS011;9785;59.362;12.152;2022-08-01T08:57:37;1.43;;;0.90;;
19301;SDS011;9785;59.362;12.152;2022-08-01T09:00:08;0.70;;;0.70;;
19301;SDS011;9785;59.362;12.152;2022-08-01T09:02:40;0.70;;;0.70;;
19301;SDS011;9785;59.362;12.152;2022-08-01T09:05:09;0.70;;;0.70;;
19301;SDS011;9785;59.362;12.152;2022-08-01T09:07:44;0.70;;;0.70;;
19301;SDS011;9785;59.362;12.152;2022-08-01T09:10:13;1.80;;;0.90;;
19301;SDS011;9785;59.362;12.152;2022-08-01T09:15:30;0.83;;;0.70;;
19301;SDS011;9785;59.362;12.152;2022-08-01T09:18:05;2.90;;;0.90;;
19301;SDS011;9785;59.362;12.152;2022-08-01T09:20:34;0.87;;;0.80;;
19301;SDS011;9785;59.362;12.152;2022-08-01T09:23:02;0.90;;;0.90;;
19301;SDS011;9785;59.362;12.152;2022-08-01T09:25:31;2.33;;;0.80;;
19301;SDS011;9785;59.362;12.152;2022-08-01T09:28:18;0.80;;;0.80;;
19301;SDS011;9785;59.362;12.152;2022-08-01T09:30:56;0.90;;;0.90;;
19301;SDS011;9785;59.362;12.152;2022-08-01T09:33:25;0.70;;;0.70;;
19301;SDS011;9785;59.362;12.152;2022-08-01T09:35:54;1.50;;;0.70;;
19301;SDS011;9785;59.362;12.152;2022-08-01T09:38:23;1.70;;;0.60;;
19301;SDS011;9785;59.362;12.152;2022-08-01T09:40:54;0.70;;;0.70;;
19301;SDS011;9785;59.362;12.152;2022-08-01T09:43:24;1.13;;;0.87;;
19301;SDS011;9785;59.362;12.152;2022-08-01T09:45:53;0.80;;;0.80;;
19301;SDS011;9785;59.362;12.152;2022-08-01T09:48:25;0.90;;;0.80;;
19301;SDS011;9785;59.362;12.152;2022-08-01T09:50:56;0.70;;;0.70;;
19301;SDS011;9785;59.362;12.152;2022-08-01T09:53:42;0.90;;;0.80;;
19301;SDS011;9785;59.362;12.152;2022-08-01T09:56:17;1.30;;;0.80;;
19301;SDS011;9785;59.362;12.152;2022-08-01T09:58:53;1.00;;;1.00;;
19301;SDS011;9785;59.362;12.152;2022-08-01T10:01:26;1.27;;;1.03;;
19301;SDS011;9785;59.362;12.152;2022-08-01T10:04:09;1.07;;;0.90;;
19301;SDS011;9785;59.362;12.152;2022-08-01T10:06:38;3.40;;;0.93;;
19301;SDS011;9785;59.362;12.152;2022-08-01T10:09:09;1.00;;;1.00;;
19301;SDS011;9785;59.362;12.152;2022-08-01T10:11:39;0.90;;;0.90;;
19301;SDS011;9785;59.362;12.152;2022-08-01T10:14:10;0.70;;;0.70;;
19301;SDS011;9785;59.362;12.152;2022-08-01T10:16:44;0.80;;;0.80;;
19301;SDS011;9785;59.362;12.152;2022-08-01T10:19:23;1.23;;;1.00;;
19301;SDS011;9785;59.362;12.152;2022-08-01T10:21:55;0.90;;;0.90;;
19301;SDS011;9785;59.362;12.152;2022-08-01T10:24:29;1.00;;;1.00;;
19301;SDS011;9785;59.362;12.152;2022-08-01T10:27:01;0.80;;;0.80;;
19301;SDS011;9785;59.362;12.152;2022-08-01T10:29:35;2.60;;;0.87;;
19301;SDS011;9785;59.362;12.152;2022-08-01T10:32:13;0.90;;;0.90;;
19301;SDS011;9785;59.362;12.152;2022-08-01T10:34:42;1.00;;;0.80;;
19301;SDS011;9785;59.362;12.152;2022-08-01T10:37:11;2.27;;;0.90;;
19301;SDS011;9785;59.362;12.152;2022-08-01T10:39:41;0.77;;;0.77;;
19301;SDS011;9785;59.362;12.152;2022-08-01T10:42:12;0.80;;;0.80;;
19301;SDS011;9785;59.362;12.152;2022-08-01T10:44:41;0.70;;;0.70;;
19301;SDS011;9785;59.362;12.152;2022-08-01T10:47:15;0.97;;;0.90;;
19301;SDS011;9785;59.362;12.152;2022-08-01T10:49:56;1.10;;;1.00;;
19301;SDS011;9785;59.362;12.152;2022-08-01T10:52:28;0.90;;;0.90;;
19301;SDS011;9785;59.362;12.152;2022-08-01T10:55:02;2.33;;;1.00;;
19301;SDS011;9785;59.362;12.152;2022-08-01T10:57:41;2.20;;;1.00;;
19301;SDS011;9785;59.362;12.152;2022-08-01T11:00:18;1.13;;;1.13;;
19301;SDS011;9785;59.362;12.152;2022-08-01T11:02:56;1.40;;;1.20;;
19301;SDS011;9785;59.362;12.152;2022-08-01T11:05:30;1.07;;;1.07;;
19301;SDS011;9785;59.362;12.152;2022-08-01T11:08:01;1.00;;;1.00;;
19301;SDS011;9785;59.362;12.152;2022-08-01T11:10:33;2.60;;;1.10;;
19301;SDS011;9785;59.362;12.152;2022-08-01T11:13:05;1.00;;;1.00;;
19301;SDS011;9785;59.362;12.152;2022-08-01T11:15:34;1.63;;;0.90;;
19301;SDS011;9785;59.362;12.152;2022-08-01T11:18:31;1.70;;;0.97;;
19301;SDS011;9785;59.362;12.152;2022-08-01T11:21:04;1.10;;;1.00;;
19301;SDS011;9785;59.362;12.152;2022-08-01T11:23:53;0.90;;;0.90;;
19301;SDS011;9785;59.362;12.152;2022-08-01T11:26:23;0.90;;;0.90;;
19301;SDS011;9785;59.362;12.152;2022-08-01T11:29:11;0.90;;;0.90;;
19301;SDS011;9785;59.362;12.152;2022-08-01T11:31:46;2.28;;;0.90;;
19301;SDS011;9785;59.362;12.152;2022-08-01T11:34:15;0.80;;;0.80;;
19301;SDS011;9785;59.362;12.152;2022-08-01T11:36:45;0.90;;;0.90;;
19301;SDS011;9785;59.362;12.152;2022-08-01T11:39:28;1.00;;;1.00;;
19301;SDS011;9785;59.362;12.152;2022-08-01T11:42:17;2.60;;;1.00;;
19301;SDS011;9785;59.362;12.152;2022-08-01T11:44:49;1.80;;;0.93;;
19301;SDS011;9785;59.362;12.152;2022-08-01T11:47:18;0.93;;;0.90;;
19301;SDS011;9785;59.362;12.152;2022-08-01T11:49:47;0.80;;;0.80;;
19301;SDS011;9785;59.362;12.152;2022-08-01T11:52:27;0.90;;;0.90;;
19301;SDS011;9785;59.362;12.152;2022-08-01T11:54:56;0.73;;;0.73;;
19301;SDS011;9785;59.362;12.152;2022-08-01T11:57:26;0.80;;;0.80;;
19301;SDS011;9785;59.362;12.152;2022-08-01T12:00:02;2.92;;;1.13;;
19301;SDS011;9785;59.362;12.152;2022-08-01T12:02:34;0.90;;;0.90;;
19301;SDS011;9785;59.362;12.152;2022-08-01T12:05:04;2.47;;;0.90;;
19301;SDS011;9785;59.362;12.152;2022-08-01T12:07:35;0.90;;;0.90;;
19301;SDS011;9785;59.362;12.152;2022-08-01T12:10:05;0.90;;;0.90;;
19301;SDS011;9785;59.362;12.152;2022-08-01T12:12:34;1.00;;;1.00;;
19301;SDS011;9785;59.362;12.152;2022-08-01T12:15:04;1.90;;;1.10;;
19301;SDS011;9785;59.362;12.152;2022-08-01T12:17:36;0.90;;;0.90;;
19301;SDS011;9785;59.362;12.152;2022-08-01T12:20:05;0.90;;;0.90;;
19301;SDS011;9785;59.362;12.152;2022-08-01T12:22:35;0.88;;;0.88;;
19301;SDS011;9785;59.362;12.152;2022-08-01T12:25:07;0.80;;;0.80;;
19301;SDS011;9785;59.362;12.152;2022-08-01T12:27:36;2.83;;;0.90;;
19301;SDS011;9785;59.362;12.152;2022-08-01T12:30:05;0.68;;;0.68;;
19301;SDS011;9785;59.362;12.152;2022-08-01T12:32:35;0.82;;;0.82;;
19301;SDS011;9785;59.362;12.152;2022-08-01T12:35:04;0.95;;;0.90;;
19301;SDS011;9785;59.362;12.152;2022-08-01T12:37:35;1.00;;;1.00;;
19301;SDS011;9785;59.362;12.152;2022-08-01T12:40:11;0.90;;;0.90;;
19301;SDS011;9785;59.362;12.152;2022-08-01T12:42:40;0.77;;;0.77;;
19301;SDS011;9785;59.362;12.152;2022-08-01T12:45:11;0.90;;;0.90;;
19301;SDS011;9785;59.362;12.152;2022-08-01T12:47:40;0.85;;;0.77;;
19301;SDS011;9785;59.362;12.152;2022-08-01T12:50:11;0.70;;;0.70;;
19301;SDS011;9785;59.362;12.152;2022-08-01T12:52:41;0.85;;;0.85;;
19301;SDS011;9785;59.362;12.152;2022-08-01T12:55:11;0.93;;;0.93;;
19301;SDS011;9785;59.362;12.152;2022-08-01T12:57:40;0.73;;;0.73;;
19301;SDS011;9785;59.362;12.152;2022-08-01T13:00:15;0.93;;;0.93;;
19301;SDS011;9785;59.362;12.152;2022-08-01T13:02:45;0.63;;;0.63;;
19301;SDS011;9785;59.362;12.152;2022-08-01T13:05:14;0.77;;;0.77;;
19301;SDS011;9785;59.362;12.152;2022-08-01T13:07:45;0.70;;;0.70;;
19301;SDS011;9785;59.362;12.152;2022-08-01T13:10:14;0.70;;;0.70;;
19301;SDS011;9785;59.362;12.152;2022-08-01T13:12:50;0.73;;;0.73;;
19301;SDS011;9785;59.362;12.152;2022-08-01T13:15:20;0.55;;;0.55;;
19301;SDS011;9785;59.362;12.152;2022-08-01T13:17:49;0.77;;;0.52;;
19301;SDS011;9785;59.362;12.152;2022-08-01T13:20:22;0.80;;;0.80;;
19301;SDS011;9785;59.362;12.152;2022-08-01T13:22:52;0.70;;;0.70;;
19301;SDS011;9785;59.362;12.152;2022-08-01T13:25:20;0.70;;;0.70;;
19301;SDS011;9785;59.362;12.152;2022-08-01T13:30:35;0.70;;;0.70;;
19301;SDS011;9785;59.362;12.152;2022-08-01T13:33:04;0.65;;;0.65;;
19301;SDS011;9785;59.362;12.152;2022-08-01T13:35:32;0.80;;;0.80;;
19301;SDS011;9785;59.362;12.152;2022-08-01T13:38:02;0.70;;;0.70;;
19301;SDS011;9785;59.362;12.152;2022-08-01T13:40:31;0.73;;;0.73;;
19301;SDS011;9785;59.362;12.152;2022-08-01T13:42:59;0.90;;;0.90;;
19301;SDS011;9785;59.362;12.152;2022-08-01T13:45:27;3.13;;;0.70;;
19301;SDS011;9785;59.362;12.152;2022-08-01T13:47:58;0.70;;;0.70;;
19301;SDS011;9785;59.362;12.152;2022-08-01T13:50:38;0.70;;;0.70;;
19301;SDS011;9785;59.362;12.152;2022-08-01T13:53:08;0.70;;;0.70;;
19301;SDS011;9785;59.362;12.152;2022-08-01T13:55:36;0.70;;;0.70;;
19301;SDS011;9785;59.362;12.152;2022-08-01T13:58:05;0.80;;;0.80;;
19301;SDS011;9785;59.362;12.152;2022-08-01T14:00:34;0.90;;;0.90;;
19301;SDS011;9785;59.362;12.152;2022-08-01T14:03:02;0.80;;;0.80;;
19301;SDS011;9785;59.362;12.152;2022-08-01T14:05:31;0.80;;;0.80;;
19301;SDS011;9785;59.362;12.152;2022-08-01T14:08:00;0.88;;;0.88;;
19301;SDS011;9785;59.362;12.152;2022-08-01T14:10:31;0.80;;;0.80;;
19301;SDS011;9785;59.362;12.152;2022-08-01T14:13:00;0.80;;;0.80;;
19301;SDS011;9785;59.362;12.152;2022-08-01T14:15:36;0.63;;;0.63;;
19301;SDS011;9785;59.362;12.152;2022-08-01T14:18:05;1.10;;;0.90;;
19301;SDS011;9785;59.362;12.152;2022-08-01T14:20:36;1.83;;;0.80;;
19301;SDS011;9785;59.362;12.152;2022-08-01T14:23:04;0.77;;;0.77;;
19301;SDS011;9785;59.362;12.152;2022-08-01T14:25:35;0.83;;;0.83;;
19301;SDS011;9785;59.362;12.152;2022-08-01T14:28:24;0.90;;;0.90;;
19301;SDS011;9785;59.362;12.152;2022-08-01T14:30:54;0.70;;;0.70;;
19301;SDS011;9785;59.362;12.152;2022-08-01T14:33:23;0.80;;;0.80;;
19301;SDS011;9785;59.362;12.152;2022-08-01T14:35:52;0.70;;;0.70;;
19301;SDS011;9785;59.362;12.152;2022-08-01T14:38:31;1.10;;;0.80;;
19301;SDS011;9785;59.362;12.152;2022-08-01T14:41:01;0.80;;;0.80;;
19301;SDS011;9785;59.362;12.152;2022-08-01T14:43:30;1.13;;;0.80;;
19301;SDS011;9785;59.362;12.152;2022-08-01T14:45:59;0.80;;;0.80;;
19301;SDS011;9785;59.362;12.152;2022-08-01T14:48:30;0.80;;;0.80;;
19301;SDS011;9785;59.362;12.152;2022-08-01T14:50:59;0.80;;;0.80;;
19301;SDS011;9785;59.362;12.152;2022-08-01T14:53:29;0.97;;;0.97;;
19301;SDS011;9785;59.362;12.152;2022-08-01T14:56:02;0.80;;;0.80;;
19301;SDS011;9785;59.362;12.152;2022-08-01T14:58:31;0.90;;;0.90;;
19301;SDS011;9785;59.362;12.152;2022-08-01T15:01:00;0.70;;;0.70;;
19301;SDS011;9785;59.362;12.152;2022-08-01T15:03:29;0.70;;;0.70;;
19301;SDS011;9785;59.362;12.152;2022-08-01T15:05:59;0.70;;;0.70;;
19301;SDS011;9785;59.362;12.152;2022-08-01T15:08:28;0.60;;;0.60;;
19301;SDS011;9785;59.362;12.152;2022-08-01T15:10:58;1.17;;;0.70;;
19301;SDS011;9785;59.362;12.152;2022-08-01T15:13:29;0.70;;;0.70;;
19301;SDS011;9785;59.362;12.152;2022-08-01T15:15:58;0.90;;;0.90;;